Flag for Japan

Past Weather in 33°36'20.8"N, 130°23'49.5"E, Japan — Yesterday and Last 2 Weeks

Currently: 70 °F. Partly cloudy. (Weather station: Fukuoka Airport, Japan). See more current weather

Past Weather in 33°36'20.8"N, 130°23'49.5"E — Graph

°F

33°36'20.8"N, 130°23'49.5"E Temperature Yesterday

Maximum temperature yesterday: 81 °F (at 1:30 pm)
Minimum temperature yesterday: 57 °F (at 4:00 am)
Average temperature yesterday: 70 °F

High & Low Weather Summary for the Past Weeks

 TemperatureHumidityPressure
High88 °F (May 26, 2:30 pm)100% (May 26, 10:30 pm)30.09 "Hg (May 26, 10:30 pm)
Low57 °F (May 16, 5:30 am)21% (May 19, 10:30 am)29.50 "Hg (May 28, 9:00 am)
Average70 °F65%29.89 "Hg
* Reported May 15 11:00 pm — May 30 11:30 pm, 33°36'20.8"N, 130°23'49.5"E. Weather by CustomWeather, © 2024

Note: Actual official high and low records may vary slightly from our data, if they occured in-between our weather recording intervals... More about our weather records

33°36'20.8"N, 130°23'49.5"E Weather History for the Previous 24 Hours

Scroll right to see more
 ConditionsComfort  
Time TempWeatherWind HumidityBarometerVisibility
11:30 pm
Thu, May 30
70 °FPartly cloudy.2 mph69%29.83 "HgN/A
11:00 pm70 °FPartly cloudy.5 mph64%29.83 "HgN/A
10:00 pm72 °FPassing clouds.3 mph53%29.86 "HgN/A
9:00 pm73 °FPassing clouds.3 mph44%29.86 "HgN/A
8:30 pm73 °FPassing clouds.3 mph44%29.86 "HgN/A
8:00 pm73 °FPassing clouds.5 mph47%29.83 "HgN/A
7:30 pm73 °FPassing clouds.3 mph47%29.86 "HgN/A
7:00 pm73 °FPassing clouds.6 mph47%29.86 "HgN/A
6:30 pm73 °FPassing clouds.6 mph44%29.83 "HgN/A
6:00 pm75 °FPassing clouds.8 mph44%29.83 "HgN/A
5:30 pm75 °FSunny.10 mph41%29.83 "Hg10 mi
5:00 pm77 °FSunny.12 mph42%29.83 "Hg10 mi
4:30 pm77 °FPassing clouds.8 mph36%29.83 "HgN/A
4:00 pm77 °FSunny.8 mph39%29.83 "Hg10 mi
3:30 pm77 °FPartly sunny.10 mph39%29.83 "HgN/A
3:00 pm77 °FSunny.13 mph42%29.83 "Hg10 mi
2:00 pm81 °FSunny.5 mph32%29.83 "Hg10 mi
1:30 pm81 °FPartly sunny.5 mph34%29.83 "HgN/A
1:00 pm79 °FSunny.3 mph37%29.83 "Hg10 mi
12:30 pm79 °FPassing clouds.6 mph37%29.83 "HgN/A
12:00 pm75 °FPassing clouds.7 mph41%29.86 "HgN/A
11:30 am77 °FSunny.9 mph36%29.86 "Hg10 mi
11:00 am75 °FPassing clouds.6 mph39%29.86 "HgN/A
10:30 am75 °FPassing clouds.7 mph36%29.89 "HgN/A
10:00 am73 °FSunny.9 mph44%29.89 "Hg10 mi
9:30 am73 °FSunny.10 mph41%29.89 "Hg10 mi
9:00 am72 °FPassing clouds.8 mph44%29.89 "HgN/A
8:30 am70 °FSunny.8 mph50%29.89 "Hg10 mi
8:00 am68 °FSunny.10 mph53%29.89 "Hg10 mi
7:30 am66 °FPassing clouds.6 mph56%29.89 "HgN/A
7:00 am64 °FSunny.1 mph64%29.92 "Hg10 mi
6:30 am63 °FSunny.1 mph73%29.89 "Hg10 mi
6:00 am61 °FSunny.2 mph77%29.89 "Hg10 mi
5:30 am59 °FClear.3 mph77%29.89 "HgN/A
5:00 am59 °FClear.3 mph77%29.89 "HgN/A
4:30 am59 °FClear.3 mph82%29.89 "HgN/A
4:00 am57 °FClear.2 mph88%29.89 "HgN/A
3:30 am59 °FClear.2 mph82%29.89 "HgN/A
3:00 am59 °FClear.2 mph88%29.89 "HgN/A
2:30 am59 °FClear.2 mph88%29.89 "HgN/A
2:00 am59 °FClear.2 mph88%29.89 "HgN/A
1:30 am59 °FClear.6 mph82%29.89 "HgN/A
1:00 am61 °FClear.3 mph83%29.89 "HgN/A
12:30 am61 °FClear.1 mph88%29.89 "HgN/A
12:00 am61 °FClear.2 mph88%29.92 "HgN/A
Weather by CustomWeather, © 2024

See weather overview